createdAt,value
2022-08-28T00:01:53.861Z,22.31
2022-08-28T00:04:56.555Z,22.48
2022-08-28T00:07:59.463Z,22.66
2022-08-28T00:11:02.033Z,22.86
2022-08-28T00:14:05.191Z,23.17
2022-08-28T00:17:07.844Z,23.14
2022-08-28T00:20:11.736Z,23.22
2022-08-28T00:23:14.513Z,23.12
2022-08-28T00:26:36.763Z,22.79
2022-08-28T00:29:39.395Z,22.56
2022-08-28T00:32:41.874Z,22.38
2022-08-28T00:35:44.497Z,22.25
2022-08-28T00:38:47.186Z,22.14
2022-08-28T00:41:52.378Z,22.04
2022-08-28T00:45:00.523Z,22.03
2022-08-28T00:48:03.198Z,21.95
2022-08-28T00:51:32.603Z,21.95
2022-08-28T00:54:37.162Z,21.94
2022-08-28T00:57:42.647Z,21.96
2022-08-28T01:00:45.255Z,21.99
2022-08-28T01:03:47.608Z,22.00
2022-08-28T01:06:54.228Z,21.98
2022-08-28T01:09:57.147Z,21.93
2022-08-28T01:13:02.486Z,21.89
2022-08-28T01:16:06.305Z,21.91
2022-08-28T01:19:17.315Z,21.95
2022-08-28T01:22:26.829Z,21.96
2022-08-28T01:25:31.383Z,21.87
2022-08-28T01:28:33.806Z,21.79
2022-08-28T01:31:36.690Z,21.79
2022-08-28T01:34:39.119Z,21.74
2022-08-28T01:37:42.220Z,21.67
2022-08-28T01:40:46.603Z,21.68
2022-08-28T01:43:50.415Z,21.68
2022-08-28T01:46:53.557Z,21.57
2022-08-28T01:49:56.716Z,21.56
2022-08-28T01:52:59.410Z,21.51
2022-08-28T01:56:04.479Z,21.40
2022-08-28T01:59:08.139Z,21.38
2022-08-28T02:02:10.885Z,21.30
2022-08-28T02:05:13.977Z,21.26
2022-08-28T02:08:16.318Z,21.22
2022-08-28T02:11:18.969Z,21.19
2022-08-28T02:14:22.411Z,21.11
2022-08-28T02:17:25.056Z,21.09
2022-08-28T02:20:29.049Z,21.07
2022-08-28T02:23:31.599Z,21.05
2022-08-28T02:26:34.067Z,20.96
2022-08-28T02:29:39.071Z,20.92
2022-08-28T02:32:41.560Z,20.82
2022-08-28T02:35:47.027Z,20.77
2022-08-28T02:38:54.119Z,20.81
2022-08-28T02:42:00.103Z,20.77
2022-08-28T02:45:02.512Z,20.75
2022-08-28T02:48:05.708Z,20.69
2022-08-28T02:51:20.032Z,20.58
2022-08-28T02:54:22.822Z,20.54
2022-08-28T02:57:25.675Z,20.48
2022-08-28T03:00:28.234Z,20.44
2022-08-28T03:03:31.296Z,20.45
2022-08-28T03:06:33.969Z,20.41
2022-08-28T03:09:36.296Z,20.40
2022-08-28T03:12:39.036Z,20.46
2022-08-28T03:15:43.610Z,20.61
2022-08-28T03:18:48.129Z,20.70
2022-08-28T03:21:50.428Z,20.65
2022-08-28T03:24:55.423Z,20.66
2022-08-28T03:27:57.755Z,20.63
2022-08-28T03:31:00.774Z,20.56
2022-08-28T03:34:03.220Z,20.60
2022-08-28T03:37:05.788Z,20.66
2022-08-28T03:40:08.917Z,20.66
2022-08-28T03:43:15.920Z,20.59
2022-08-28T03:46:20.333Z,20.54
2022-08-28T03:49:23.664Z,20.51
2022-08-28T03:52:26.258Z,20.49
2022-08-28T03:55:29.023Z,20.44
2022-08-28T03:58:31.352Z,20.37
2022-08-28T04:01:34.467Z,20.27
2022-08-28T04:04:37.154Z,20.30
2022-08-28T04:07:40.139Z,20.28
2022-08-28T04:10:44.032Z,20.20
2022-08-28T04:13:46.443Z,20.15
2022-08-28T04:16:49.697Z,20.11
2022-08-28T04:19:52.877Z,20.10
2022-08-28T04:22:55.640Z,20.13
2022-08-28T04:26:01.013Z,20.25
2022-08-28T04:29:03.995Z,20.20
2022-08-28T04:32:06.602Z,20.27
2022-08-28T04:35:10.608Z,20.31
2022-08-28T04:38:13.074Z,20.29
2022-08-28T04:41:16.422Z,20.30
2022-08-28T04:44:19.160Z,20.41
2022-08-28T04:47:22.976Z,20.54
2022-08-28T04:50:25.320Z,20.67
2022-08-28T04:53:29.678Z,20.78
2022-08-28T04:56:32.057Z,20.84
2022-08-28T04:59:34.598Z,20.94
2022-08-28T05:02:37.044Z,21.09
2022-08-28T05:05:51.954Z,21.11
2022-08-28T05:08:55.245Z,21.17
2022-08-28T05:12:01.817Z,21.21
2022-08-28T05:15:04.276Z,21.37
2022-08-28T05:18:06.878Z,21.54
2022-08-28T05:21:16.370Z,21.60
2022-08-28T05:24:19.202Z,21.70
2022-08-28T05:27:24.467Z,21.83
2022-08-28T05:30:27.192Z,21.97
2022-08-28T05:33:29.460Z,21.97
2022-08-28T05:36:34.234Z,22.11
2022-08-28T05:39:36.529Z,22.23
2022-08-28T05:42:39.280Z,22.37
2022-08-28T05:45:42.029Z,22.51
2022-08-28T05:48:45.752Z,22.55
2022-08-28T05:51:48.746Z,22.66
2022-08-28T05:54:51.768Z,22.93
2022-08-28T05:57:54.366Z,23.01
2022-08-28T06:01:17.144Z,23.11
2022-08-28T06:04:23.525Z,23.76
2022-08-28T06:07:25.941Z,24.69
2022-08-28T06:10:29.085Z,25.11
2022-08-28T06:13:31.657Z,25.20
2022-08-28T06:16:35.599Z,25.34
2022-08-28T06:19:41.483Z,27.05
2022-08-28T06:22:44.504Z,29.91
2022-08-28T06:25:49.086Z,31.32
2022-08-28T06:28:53.088Z,32.81
2022-08-28T06:31:58.685Z,33.16
2022-08-28T06:35:01.385Z,31.19
2022-08-28T06:38:04.062Z,29.30
2022-08-28T06:41:09.272Z,28.29
2022-08-28T06:44:13.522Z,28.03
2022-08-28T06:47:16.080Z,27.79
2022-08-28T06:50:18.381Z,27.51
2022-08-28T06:53:22.273Z,28.19
2022-08-28T06:56:26.519Z,30.43
2022-08-28T06:59:30.092Z,35.51
2022-08-28T07:02:32.658Z,38.15
2022-08-28T07:05:35.295Z,39.53
2022-08-28T07:08:38.723Z,37.94
2022-08-28T07:11:43.852Z,34.89
2022-08-28T07:14:46.199Z,33.06
2022-08-28T07:17:48.786Z,35.37
2022-08-28T07:20:58.152Z,33.98
2022-08-28T07:24:00.879Z,35.18
2022-08-28T07:27:03.909Z,36.20
2022-08-28T07:30:07.243Z,36.33
2022-08-28T07:33:09.581Z,32.71
2022-08-28T07:36:15.751Z,29.66
2022-08-28T07:39:28.063Z,29.39
2022-08-28T07:42:49.172Z,29.70
2022-08-28T07:46:01.589Z,31.71
2022-08-28T07:49:07.651Z,35.73
2022-08-28T07:52:10.732Z,34.60
2022-08-28T07:55:13.297Z,32.45
2022-08-28T07:58:16.026Z,29.26
2022-08-28T08:01:19.702Z,28.36
2022-08-28T08:04:23.598Z,28.29
2022-08-28T08:07:26.033Z,28.27
2022-08-28T08:10:34.169Z,28.57
2022-08-28T08:13:38.386Z,29.32
2022-08-28T08:16:42.991Z,30.59
2022-08-28T08:19:45.297Z,30.90
2022-08-28T08:22:47.892Z,30.86
2022-08-28T08:25:53.807Z,29.41
2022-08-28T08:28:57.161Z,29.39
2022-08-28T08:32:05.235Z,29.10
2022-08-28T08:35:08.522Z,29.21
2022-08-28T08:38:10.859Z,29.00
2022-08-28T08:41:32.044Z,28.68
2022-08-28T08:44:36.645Z,28.44
2022-08-28T08:47:43.866Z,28.25
2022-08-28T08:50:46.748Z,28.50
2022-08-28T08:53:52.432Z,28.92
2022-08-28T08:56:56.015Z,29.24
2022-08-28T08:59:58.669Z,29.28
2022-08-28T09:03:07.032Z,29.07
2022-08-28T09:06:18.504Z,29.20
2022-08-28T09:09:23.865Z,28.82
2022-08-28T09:12:28.224Z,29.04
2022-08-28T09:15:32.701Z,29.00
2022-08-28T09:18:35.463Z,29.09
2022-08-28T09:21:42.421Z,28.93
2022-08-28T09:24:45.784Z,29.09
2022-08-28T09:27:52.696Z,29.37
2022-08-28T09:30:57.891Z,29.56
2022-08-28T09:34:20.930Z,29.42
2022-08-28T09:37:27.501Z,29.64
2022-08-28T09:40:50.092Z,30.37
2022-08-28T09:43:52.836Z,30.74
2022-08-28T09:46:55.312Z,31.17
2022-08-28T09:50:14.147Z,31.27
2022-08-28T09:53:19.211Z,31.57
2022-08-28T09:56:27.616Z,31.60
2022-08-28T09:59:30.353Z,31.36
2022-08-28T10:02:59.081Z,31.09
2022-08-28T10:06:01.699Z,30.90
2022-08-28T10:09:04.269Z,31.29
2022-08-28T10:12:14.302Z,31.49
2022-08-28T10:15:32.563Z,31.71
2022-08-28T10:18:54.039Z,31.35
2022-08-28T10:22:10.938Z,31.63
2022-08-28T10:25:21.177Z,31.67
2022-08-28T10:28:31.417Z,31.73
2022-08-28T10:31:48.748Z,31.66
2022-08-28T10:35:14.182Z,31.91
2022-08-28T10:38:19.897Z,31.12
2022-08-28T10:41:25.416Z,31.65
2022-08-28T10:45:06.876Z,32.01
2022-08-28T10:48:27.172Z,32.13
2022-08-28T10:51:43.654Z,31.72
2022-08-28T10:54:50.877Z,31.91
2022-08-28T10:57:57.811Z,32.42
2022-08-28T11:01:03.099Z,32.53
2022-08-28T11:04:08.247Z,32.94
2022-08-28T11:07:12.675Z,32.94
2022-08-28T11:10:17.881Z,33.30
2022-08-28T11:13:39.135Z,33.23
2022-08-28T11:16:46.137Z,33.37
2022-08-28T11:19:57.427Z,32.72
2022-08-28T11:23:07.781Z,32.44
2022-08-28T11:26:12.854Z,32.29
2022-08-28T11:29:34.531Z,32.46
2022-08-28T11:32:36.838Z,32.71
2022-08-28T11:35:43.006Z,32.34
2022-08-28T11:38:45.482Z,31.70
2022-08-28T11:42:06.907Z,31.63
2022-08-28T11:45:17.851Z,31.59
2022-08-28T11:48:34.534Z,32.26
2022-08-28T11:51:39.977Z,32.55
2022-08-28T11:54:48.653Z,32.66
2022-08-28T11:57:51.030Z,32.65
2022-08-28T12:00:56.481Z,32.44
2022-08-28T12:04:07.456Z,32.70
2022-08-28T12:07:13.310Z,32.22
2022-08-28T12:10:22.358Z,31.74
2022-08-28T12:13:43.439Z,32.02
2022-08-28T12:16:58.509Z,32.08
2022-08-28T12:20:21.090Z,32.09
2022-08-28T12:23:23.676Z,32.49
2022-08-28T12:26:28.371Z,32.67
2022-08-28T12:29:32.665Z,32.62
2022-08-28T12:32:38.050Z,31.71
2022-08-28T12:35:43.715Z,31.32
2022-08-28T12:38:48.875Z,31.15
2022-08-28T12:41:51.574Z,31.26
2022-08-28T12:44:59.420Z,30.84
2022-08-28T12:48:04.746Z,30.62
2022-08-28T12:51:11.858Z,30.65
2022-08-28T12:54:16.844Z,30.59
2022-08-28T12:57:22.541Z,30.71
2022-08-28T13:00:26.752Z,31.10
2022-08-28T13:03:30.089Z,31.14
2022-08-28T13:06:34.246Z,31.03
2022-08-28T13:09:36.712Z,31.20
2022-08-28T13:12:56.684Z,31.16
2022-08-28T13:16:08.188Z,31.30
2022-08-28T13:19:24.232Z,31.06
2022-08-28T13:22:40.516Z,30.96
2022-08-28T13:25:43.141Z,31.05
2022-08-28T13:28:45.487Z,30.75
2022-08-28T13:32:00.218Z,30.86
2022-08-28T13:35:30.770Z,30.50
2022-08-28T13:38:35.414Z,30.54
2022-08-28T13:41:38.079Z,30.85
2022-08-28T13:44:45.736Z,31.10
2022-08-28T13:47:48.071Z,31.19
2022-08-28T13:50:53.706Z,30.93
2022-08-28T13:53:56.106Z,30.70
2022-08-28T13:57:01.016Z,30.87
2022-08-28T14:00:04.169Z,30.87
2022-08-28T14:03:28.484Z,31.25
2022-08-28T14:06:31.909Z,31.60
2022-08-28T14:09:35.099Z,31.36
2022-08-28T14:12:38.887Z,30.93
2022-08-28T14:15:41.432Z,30.82
2022-08-28T14:18:44.129Z,30.48
2022-08-28T14:21:46.628Z,30.07
2022-08-28T14:24:49.248Z,30.05
2022-08-28T14:27:51.598Z,30.19
2022-08-28T14:30:55.808Z,30.01
2022-08-28T14:33:58.667Z,29.99
2022-08-28T14:37:01.899Z,29.89
2022-08-28T14:40:05.524Z,29.92
2022-08-28T14:43:10.047Z,29.99
2022-08-28T14:46:16.649Z,30.14
2022-08-28T14:49:20.067Z,30.04
2022-08-28T14:52:22.907Z,29.82
2022-08-28T14:55:26.383Z,29.87
2022-08-28T14:58:28.760Z,29.70
2022-08-28T15:01:40.224Z,29.58
2022-08-28T15:04:43.643Z,29.49
2022-08-28T15:07:46.229Z,29.50
2022-08-28T15:10:48.666Z,29.52
2022-08-28T15:13:52.354Z,29.45
2022-08-28T15:16:54.788Z,29.26
2022-08-28T15:20:00.393Z,29.16
2022-08-28T15:23:02.769Z,29.08
2022-08-28T15:26:05.440Z,29.05
2022-08-28T15:29:07.992Z,28.97
2022-08-28T15:32:10.567Z,28.86
2022-08-28T15:35:13.003Z,28.76
2022-08-28T15:38:16.129Z,28.75
2022-08-28T15:41:24.467Z,28.72
2022-08-28T15:44:27.574Z,28.66
2022-08-28T15:47:29.989Z,28.52
2022-08-28T15:50:32.658Z,28.46
2022-08-28T15:53:35.435Z,28.40
2022-08-28T15:56:38.393Z,28.27
2022-08-28T15:59:49.682Z,28.30
2022-08-28T16:02:55.838Z,28.29
2022-08-28T16:05:58.787Z,28.16
2022-08-28T16:09:01.360Z,28.10
2022-08-28T16:12:04.175Z,27.97
2022-08-28T16:15:07.029Z,27.85
2022-08-28T16:18:09.937Z,27.68
2022-08-28T16:21:12.934Z,27.59
2022-08-28T16:24:15.608Z,27.54
2022-08-28T16:27:18.121Z,27.46
2022-08-28T16:30:23.870Z,27.44
2022-08-28T16:33:27.961Z,27.31
2022-08-28T16:36:31.066Z,27.17
2022-08-28T16:39:33.453Z,27.06
2022-08-28T16:42:36.203Z,27.00
2022-08-28T16:45:41.251Z,26.93
2022-08-28T16:48:44.963Z,26.85
2022-08-28T16:51:47.457Z,26.79
2022-08-28T16:54:51.660Z,26.71
2022-08-28T16:57:54.608Z,26.66
2022-08-28T17:00:57.603Z,26.63
2022-08-28T17:04:00.092Z,26.60
2022-08-28T17:07:02.858Z,26.56
2022-08-28T17:10:06.433Z,26.43
2022-08-28T17:13:09.084Z,26.32
2022-08-28T17:16:12.149Z,26.27
2022-08-28T17:19:15.794Z,26.22
2022-08-28T17:22:33.080Z,26.13
2022-08-28T17:25:35.793Z,26.10
2022-08-28T17:28:38.230Z,26.01
2022-08-28T17:31:41.163Z,25.91
2022-08-28T17:34:43.609Z,25.78
2022-08-28T17:37:46.495Z,25.74
2022-08-28T17:40:48.972Z,25.65
2022-08-28T17:43:52.037Z,25.59
2022-08-28T17:46:54.416Z,25.58
2022-08-28T17:49:57.207Z,25.51
2022-08-28T17:52:59.605Z,25.45
2022-08-28T17:56:05.966Z,25.39
2022-08-28T17:59:08.934Z,25.34
2022-08-28T18:02:11.979Z,25.35
2022-08-28T18:05:14.841Z,25.32
2022-08-28T18:08:17.536Z,25.23
2022-08-28T18:11:20.204Z,25.19
2022-08-28T18:14:22.800Z,25.22
2022-08-28T18:17:25.526Z,25.28
2022-08-28T18:20:27.865Z,25.25
2022-08-28T18:23:30.683Z,25.32
2022-08-28T18:26:33.140Z,25.30
2022-08-28T18:29:36.717Z,25.35
2022-08-28T18:32:39.200Z,25.24
2022-08-28T18:35:46.279Z,25.18
2022-08-28T18:38:51.572Z,25.10
2022-08-28T18:41:54.964Z,25.10
2022-08-28T18:44:57.365Z,24.98
2022-08-28T18:48:00.591Z,24.94
2022-08-28T18:51:07.831Z,24.89
2022-08-28T18:54:11.173Z,24.87
2022-08-28T18:57:14.929Z,24.89
2022-08-28T19:00:17.805Z,24.91
2022-08-28T19:03:20.725Z,24.89
2022-08-28T19:06:23.816Z,24.88
2022-08-28T19:09:31.690Z,24.89
2022-08-28T19:12:34.972Z,24.95
2022-08-28T19:15:37.455Z,24.91
2022-08-28T19:18:40.264Z,24.81
2022-08-28T19:21:42.645Z,24.74
2022-08-28T19:24:45.350Z,24.74
2022-08-28T19:27:47.721Z,24.77
2022-08-28T19:30:54.416Z,24.71
2022-08-28T19:33:57.626Z,24.56
2022-08-28T19:37:00.550Z,24.45
2022-08-28T19:40:03.894Z,24.42
2022-08-28T19:43:06.687Z,24.39
2022-08-28T19:46:19.227Z,24.34
2022-08-28T19:49:23.815Z,24.30
2022-08-28T19:52:26.145Z,24.26
2022-08-28T19:55:28.941Z,24.17
2022-08-28T19:58:31.437Z,24.15
2022-08-28T20:01:37.777Z,24.13
2022-08-28T20:04:40.509Z,24.08
2022-08-28T20:07:43.579Z,24.00
2022-08-28T20:10:46.843Z,23.83
2022-08-28T20:13:49.627Z,23.75
2022-08-28T20:16:52.355Z,23.65
2022-08-28T20:20:02.230Z,23.56
2022-08-28T20:23:06.125Z,23.58
2022-08-28T20:26:10.529Z,23.52
2022-08-28T20:29:13.619Z,23.40
2022-08-28T20:32:15.992Z,23.31
2022-08-28T20:35:19.128Z,23.18
2022-08-28T20:38:24.534Z,23.19
2022-08-28T20:41:27.200Z,23.08
2022-08-28T20:44:29.496Z,23.01
2022-08-28T20:47:32.107Z,23.00
2022-08-28T20:50:34.487Z,22.98
2022-08-28T20:53:38.136Z,22.85
2022-08-28T20:56:41.105Z,22.83
2022-08-28T20:59:44.640Z,22.84
2022-08-28T21:02:46.931Z,22.91
2022-08-28T21:05:49.744Z,22.81
2022-08-28T21:08:53.373Z,22.77
2022-08-28T21:11:55.949Z,22.76
2022-08-28T21:14:58.371Z,22.66
2022-08-28T21:18:02.000Z,22.60
2022-08-28T21:21:04.997Z,22.56
2022-08-28T21:24:09.759Z,22.47
2022-08-28T21:27:12.103Z,22.44
2022-08-28T21:30:17.545Z,22.41
2022-08-28T21:33:20.598Z,22.33
2022-08-28T21:36:23.350Z,22.31
2022-08-28T21:39:25.639Z,22.24
2022-08-28T21:42:28.504Z,22.16
2022-08-28T21:45:30.945Z,22.16
2022-08-28T21:48:36.055Z,22.13
2022-08-28T21:51:38.348Z,22.07
2022-08-28T21:54:40.940Z,22.01
2022-08-28T21:57:43.383Z,21.97
2022-08-28T22:00:47.308Z,21.95
2022-08-28T22:03:51.161Z,21.95
2022-08-28T22:06:53.628Z,21.94
2022-08-28T22:09:56.223Z,21.86
2022-08-28T22:12:58.600Z,21.79
2022-08-28T22:16:01.315Z,21.78
2022-08-28T22:19:04.342Z,21.77
2022-08-28T22:22:26.445Z,21.67
2022-08-28T22:25:40.588Z,21.68
2022-08-28T22:28:43.873Z,21.67
2022-08-28T22:31:46.392Z,21.61
2022-08-28T22:34:49.649Z,21.54
2022-08-28T22:37:52.010Z,21.53
2022-08-28T22:40:55.173Z,21.51
2022-08-28T22:43:57.415Z,21.43
2022-08-28T22:47:00.575Z,21.39
2022-08-28T22:50:07.047Z,21.36
2022-08-28T22:53:09.932Z,21.33
2022-08-28T22:56:12.809Z,21.32
2022-08-28T22:59:15.581Z,21.23
2022-08-28T23:02:19.412Z,21.21
2022-08-28T23:05:22.812Z,21.16
2022-08-28T23:08:25.141Z,21.13
2022-08-28T23:11:27.666Z,21.10
2022-08-28T23:14:31.566Z,21.07
2022-08-28T23:17:34.196Z,21.07
2022-08-28T23:20:36.535Z,21.00
2022-08-28T23:23:39.063Z,21.01
2022-08-28T23:26:41.751Z,21.00
2022-08-28T23:29:44.360Z,20.98
2022-08-28T23:32:46.805Z,20.90
2022-08-28T23:35:49.398Z,20.83
2022-08-28T23:38:52.116Z,20.83
2022-08-28T23:41:55.061Z,20.81
2022-08-28T23:44:57.816Z,20.81
2022-08-28T23:48:01.555Z,20.83
2022-08-28T23:51:08.075Z,20.82
2022-08-28T23:54:12.251Z,20.78
2022-08-28T23:57:14.627Z,20.70
